Terminal Aerodrome Forecast
Issued by NWS Cleveland, OH

Home | Current Version | Previous Version | Graphics & Text | Print | Product List | Glossary On
Versions: 1 2 3 4 5 6 7 8 9 10 11 12 13 14 15 16 17 18 19 20 21
000
FTUS41 KCLE 271500 AAA
TAFERI
TAF AMD
KERI 271509Z 2715/2812 03009KT 1 1/2SM -SN BKN012 OVC025
      TEMPO 2715/2719 3SM -SN SCT012 OVC020
     FM271900 02010KT 4SM -SN BKN015 OVC025
     FM280000 35008KT P6SM BKN020
     FM280400 32005KT P6SM SCT020=

USA.gov is the U.S. government's official web portal to all federal, state and local government web resources and services.